Main page
METAR-TAF:

METAR-TAF

Airports :

King Abdulaziz International Airport

Jeddah, Saudi Arabia

latitude: 21-42N, longitude: 039-11E, elevation: 15 m

Current weather observation

The report was made 1 hour and 10 minutes ago, at 08:00 UTC
Wind 12 kt from the North/Northwest
Temperature 38°C
Humidity 31%
Pressure 1008 hPa
Visibility 10 km or more
no clouds below 1500 m and no cumulonimbus

METAR: OEJN 210800Z 33012KT CAVOK 38/18 Q1008 NOSIG

Time: 12:10 (09:10 UTC)

Forecast

The report was made 4 hours and 10 minutes ago, at 05:00 UTC
Forecast valid from 21 at 06 UTC to 22 at 12 UTC
Wind 15 kt from the North/Northwest
Visibility 10 km or more
no clouds below 1500 m and no cumulonimbus
Becoming
from 21 at 18 UTC to 21 at 20 UTC
Wind 3 kt from variable directions

TAF: OEJN 210500Z 2106/2212 33015KT CAVOK BECMG 2118/2120 VRB03KT

Weather observations and forecasts of more than 4000 airports (METAR and TAF reports).

The available stations are represented by yellow and red dots on the map.

Hover mouse over dot to see the name of the station.

Then click to see weather observations and forecasts.

To change the map : click on the green buttons with a black cross to zoom in, on the green button with a dash to zoom out, or on the green arrows for adjacent maps.


METAR-TAF: